D/T METAR WX W/DIR W/SPE G/SPE TEMP DEWP
23/05/19 13:20 EGNT 231220Z 25017KT 9999 FEW035 17/05 Q1012 WSW (250°) 19.6mph 17°C 5°C
23/05/19 12:50 EGNT 231150Z 24016KT 180V270 9999 FEW035 16/05 Q1013 WSW (240°) 18.4mph 16°C 5°C
23/05/19 12:20 EGNT 231120Z 26016KT 220V280 9999 FEW040 16/05 Q1013 W (260°) 18.4mph 16°C 5°C
23/05/19 11:50 EGNT 231050Z 26016KT 230V300 9999 FEW040 16/07 Q1013 W (260°) 18.4mph 16°C 7°C
23/05/19 11:20 EGNT 231020Z 27019KT 9999 FEW020 15/06 Q1013 W (270°) 21.9mph 15°C 6°C
23/05/19 10:50 EGNT 230950Z 26016KT 230V290 9999 FEW020 15/07 Q1013 W (260°) 18.4mph 15°C 7°C
23/05/19 10:20 EGNT 230920Z 25018KT 210V280 9999 FEW020 14/07 Q1013 WSW (250°) 20.7mph 14°C 7°C
23/05/19 09:50 EGNT 230850Z 25015KT CAVOK 13/06 Q1014 WSW (250°) 17.3mph 13°C 6°C
23/05/19 09:20 EGNT 230820Z 25016KT CAVOK 13/06 Q1014 WSW (250°) 18.4mph 13°C 6°C
23/05/19 08:50 EGNT 230750Z 25014KT CAVOK 12/06 Q1014 WSW (250°) 16.1mph 12°C 6°C
23/05/19 08:20 EGNT 230720Z 26015KT CAVOK 11/05 Q1014 W (260°) 17.3mph 11°C 5°C
23/05/19 07:50 EGNT 230650Z 28014KT 250V310 CAVOK 10/06 Q1014 W (280°) 16.1mph 10°C 6°C
23/05/19 07:20 EGNT 230620Z 29011KT CAVOK 09/06 Q1014 WNW (290°) 12.7mph 9°C 6°C
23/05/19 06:50 EGNT 230550Z 28013KT CAVOK 08/06 Q1014 W (280°) 15.0mph 8°C 6°C
23/05/19 06:20 EGNT 230520Z 29009KT CAVOK 07/05 Q1014 WNW (290°) 10.4mph 7°C 5°C
23/05/19 05:50 EGNT 230450Z 28010KT CAVOK 07/05 Q1013 W (280°) 11.5mph 7°C 5°C
23/05/19 05:20 EGNT 230420Z 28010KT CAVOK 06/05 Q1013 W (280°) 11.5mph 6°C 5°C
23/05/19 04:50 EGNT 230350Z 27013KT CAVOK 06/05 Q1014 W (270°) 15.0mph 6°C 5°C
23/05/19 04:20 EGNT 230320Z 27013KT CAVOK 06/06 Q1014 W (270°) 15.0mph 6°C 6°C
23/05/19 03:50 EGNT 230250Z 28011KT CAVOK 06/05 Q1014 W (280°) 12.7mph 6°C 5°C
23/05/19 02:50 EGNT 230150Z 26009KT CAVOK 06/05 Q1014 W (260°) 10.4mph 6°C 5°C
23/05/19 02:20 EGNT 230120Z 25008KT CAVOK 06/05 Q1014 WSW (250°) 9.2mph 6°C 5°C
23/05/19 01:50 EGNT 230050Z 26009KT CAVOK 07/06 Q1014 W (260°) 10.4mph 7°C 6°C
23/05/19 01:20 EGNT 230020Z 25008KT CAVOK 07/05 Q1015 WSW (250°) 9.2mph 7°C 5°C
23/05/19 00:50 EGNT 222350Z 25008KT CAVOK 07/06 Q1015 WSW (250°) 9.2mph 7°C 6°C
23/05/19 00:20 EGNT 222320Z 27009KT CAVOK 08/06 Q1015 W (270°) 10.4mph 8°C 6°C
22/05/19 23:50 EGNT 222250Z 26008KT CAVOK 08/06 Q1015 W (260°) 9.2mph 8°C 6°C
22/05/19 23:20 EGNT 222220Z 25009KT CAVOK 08/05 Q1015 WSW (250°) 10.4mph 8°C 5°C
22/05/19 22:50 EGNT 222150Z 25009KT CAVOK 08/05 Q1015 WSW (250°) 10.4mph 8°C 5°C
22/05/19 22:20 EGNT 222120Z 25010KT CAVOK 09/05 Q1015 WSW (250°) 11.5mph 9°C 5°C
22/05/19 21:50 EGNT 222050Z 25010KT CAVOK 10/05 Q1015 WSW (250°) 11.5mph 10°C 5°C
22/05/19 21:20 EGNT 222020Z 25010KT CAVOK 11/04 Q1015 WSW (250°) 11.5mph 11°C 4°C
22/05/19 20:50 EGNT 221950Z 25010KT CAVOK 12/04 Q1015 WSW (250°) 11.5mph 12°C 4°C
22/05/19 20:20 EGNT 221920Z 26012KT CAVOK 13/04 Q1015 W (260°) 13.8mph 13°C 4°C
22/05/19 19:50 EGNT 221850Z 26013KT CAVOK 14/05 Q1015 W (260°) 15.0mph 14°C 5°C
22/05/19 19:20 EGNT 221820Z 25013KT CAVOK 15/04 Q1015 WSW (250°) 15.0mph 15°C 4°C
22/05/19 18:50 EGNT 221750Z 26014KT 9999 FEW049 15/04 Q1015 W (260°) 16.1mph 15°C 4°C
22/05/19 18:20 EGNT 221720Z 27012KT 9999 FEW049 16/05 Q1015 W (270°) 13.8mph 16°C 5°C
22/05/19 17:50 EGNT 221650Z 25012KT 9999 FEW048 16/05 Q1015 WSW (250°) 13.8mph 16°C 5°C
22/05/19 17:20 EGNT 221620Z 26012KT 9999 FEW048 17/05 Q1015 W (260°) 13.8mph 17°C 5°C
22/05/19 16:50 EGNT 221550Z 26012KT 220V300 9999 SCT048 17/06 Q1015 W (260°) 13.8mph 17°C 6°C
22/05/19 16:20 EGNT 221520Z 24013KT 210V270 9999 SCT048 17/06 Q1015 WSW (240°) 15.0mph 17°C 6°C
22/05/19 15:50 EGNT 221450Z 24013KT 200V270 9999 SCT048 17/06 Q1015 WSW (240°) 15.0mph 17°C 6°C
22/05/19 15:20 EGNT 221420Z 25013KT 9999 FEW046 16/06 Q1015 WSW (250°) 15.0mph 16°C 6°C
22/05/19 14:50 EGNT 221350Z 25012KT 210V270 9999 FEW035 17/07 Q1015 WSW (250°) 13.8mph 17°C 7°C
22/05/19 14:20 EGNT 221320Z 26013KT 9999 FEW035 16/05 Q1016 W (260°) 15.0mph 16°C 5°C
22/05/19 13:50 EGNT 221250Z 25013KT 9999 FEW035 16/06 Q1016 WSW (250°) 15.0mph 16°C 6°C
22/05/19 13:20 EGNT 221220Z 26013KT 210V290 9999 FEW035 16/05 Q1016 W (260°) 15.0mph 16°C 5°C